Current | Forecast
Updated: 5:00 AM EET on November 22, 2017
Observed at Alexandria, Egypt
Temperature 17°C
Humidity 45%
Dew Point 5°C
Wind NW at 22 km/h
Pressure 1018 hPa (Steady)
Conditions Scattered Clouds
Visibility 10.0 kilometers
UV 0 out of 16
Clouds Scattered Clouds (SCT) : 609 m
Scattered Clouds (SCT) : 670 m
Yesterday's Maximum 20°C
Yesterday's Minimum 17°C approx.
Yesterday's Cooling Degree Days N/A approx.
Sunrise6:33 AM EET
Sunset4:59 PM EET
Moon Rise9:36 AM EET
Moon Set8:15 PM EET
Moon PhaseMoon Phase
Waxing Crescent
Raw METARMETAR HEAX 220300Z 32012KT 9999 SCT020 SCT022 17/05 Q1018 NOSIG


Monday
. High: 73° F.
Tuesday
. High: 75° F.
Wednesday
. High: 75° F.
Thursday
. High: 75° F.
Friday
. High: 77° F.
Saturday
. High: 80° F.
Sunday
. High: 77° F.
Monday
. High: 75° F.

Units: English | Metric

Find the Weather for any City, State or Zipcode, or Country:

U.S. State List | Severe Weather | Tropical Storms | Ski Conditions
United States | Canada | Central America | South America | Asia | Europe | Australia | Africa | Islands

Weather Underground

© Copyright 2017
The Weather Company, LLC